Time;durP1;ratioP1;P1;durP2;ratioP2;P2;SDS_P1;SDS_P2;PMS_P1;PMS_P2;Temp;Humidity;BMP_temperature;BMP_pressure;BME280_temperature;BME280_humidity;BME280_pressure;Samples;Min_cycle;Max_cycle;Signal;HPM_P1;HPM_P2
2022/06/21 00:01:04;;;;;;;;;9.25;9.00;;;;;-146.67;31.89;73839.13;5105107;27;61794;-79
2022/06/21 00:03:30;;;;;;;;;9.25;9.00;;;;;-146.67;31.62;73847.13;5107392;27;62170;-79
2022/06/21 00:05:56;;;;;;;;;9.50;8.25;;;;;-146.67;31.55;73855.09;5098981;27;61767;-79
2022/06/21 00:08:26;;;;;;;;;12.25;9.25;;;;;-146.67;32.06;73885.06;5099580;27;61840;-79
2022/06/21 00:10:53;;;;;;;;;10.50;8.00;;;;;-146.67;31.66;73869.09;5101915;27;62125;-78
2022/06/21 00:13:22;;;;;;;;;6.75;6.75;;;;;-146.67;31.88;73861.09;5078548;27;62132;-79
2022/06/21 00:15:50;;;;;;;;;10.75;6.75;;;;;-146.67;31.71;73857.09;5091659;27;61895;-79
2022/06/21 00:18:19;;;;;;;;;8.00;8.00;;;;;-146.67;31.90;73849.13;5103046;27;62163;-78
2022/06/21 00:20:44;;;;;;;;;8.75;7.00;;;;;-146.67;31.67;73851.13;5090677;27;62048;-79
2022/06/21 00:23:19;;;;;;;;;7.50;7.00;;;;;-146.67;31.80;73849.13;5066823;28;61987;-79
2022/06/21 00:25:46;;;;;;;;;8.00;6.75;;;;;-146.67;31.70;73855.09;5096779;27;62039;-78
2022/06/21 00:28:13;;;;;;;;;7.50;7.00;;;;;-146.67;31.89;73853.13;5090575;27;61881;-79
2022/06/21 00:30:42;;;;;;;;;7.75;7.75;;;;;-146.67;31.79;73859.09;5088482;27;61818;-80
2022/06/21 00:33:12;;;;;;;;;7.50;7.50;;;;;-146.67;31.73;73869.09;5065982;28;62900;-78
2022/06/21 00:35:40;;;;;;;;;8.00;6.75;;;;;-146.67;31.62;73869.09;5082875;28;62677;-79
2022/06/21 00:38:11;;;;;;;;;9.75;6.50;;;;;-146.67;32.07;73879.06;5094661;27;61938;-79
2022/06/21 00:40:37;;;;;;;;;6.75;5.25;;;;;-146.67;31.73;73879.06;5102734;27;61904;-79
2022/06/21 00:43:16;;;;;;;;;7.00;5.00;;;;;-146.67;31.80;73881.06;5083019;27;62668;-79
2022/06/21 00:45:45;;;;;;;;;7.75;7.75;;;;;-146.67;31.88;73901.03;5086749;27;62781;-79
2022/06/21 00:48:23;;;;;;;;;7.75;7.75;;;;;-146.67;31.80;73901.03;5097591;27;62075;-79
2022/06/21 00:50:54;;;;;;;;;6.75;5.50;;;;;-146.67;32.01;73897.03;5080155;27;61870;-79
2022/06/21 00:53:19;;;;;;;;;6.50;6.50;;;;;-146.67;31.95;73893.03;5081625;27;61818;-79
2022/06/21 00:55:51;;;;;;;;;6.00;5.25;;;;;-146.67;31.76;73895.03;5087057;27;61971;-79
2022/06/21 00:58:20;;;;;;;;;5.50;5.50;;;;;-146.67;32.11;73905.00;5079635;28;61910;-79
2022/06/21 01:01:24;;;;;;;;;5.00;5.00;;;;;-146.67;31.89;73913.00;5064741;28;62207;-79
2022/06/21 01:03:56;;;;;;;;;5.00;5.00;;;;;-146.67;32.18;73928.97;5089711;27;62772;-79
2022/06/21 01:06:34;;;;;;;;;8.25;6.75;;;;;-146.67;31.73;73940.94;5090308;27;61968;-78
2022/06/21 01:09:11;;;;;;;;;5.50;4.50;;;;;-146.67;32.23;73948.94;5099063;27;61974;-79
2022/06/21 01:11:45;;;;;;;;;9.50;5.75;;;;;-146.67;32.19;73938.94;5092384;27;61860;-79
2022/06/21 01:14:15;;;;;;;;;6.00;6.00;;;;;-146.67;32.28;73936.94;5082149;27;61479;-81
2022/06/21 01:16:41;;;;;;;;;7.75;5.75;;;;;-146.67;32.34;73946.94;5103588;27;63215;-79
2022/06/21 01:19:32;;;;;;;;;6.50;5.00;;;;;-146.67;32.32;73944.94;5093443;27;61885;-79
2022/06/21 01:22:07;;;;;;;;;6.00;5.00;;;;;-146.67;32.28;73940.94;5100072;27;62278;-79
2022/06/21 01:24:59;;;;;;;;;6.75;6.75;;;;;-146.67;32.30;73950.94;5085932;27;61290;-79
2022/06/21 01:27:24;;;;;;;;;5.00;5.00;;;;;-146.67;32.24;73966.91;5066841;28;64871;-79
2022/06/21 01:29:51;;;;;;;;;7.25;6.25;;;;;-146.67;32.41;73976.88;5103124;27;62141;-79
2022/06/21 01:32:17;;;;;;;;;4.75;4.75;;;;;-146.67;32.64;73972.88;5105155;27;61789;-79
2022/06/21 01:34:43;;;;;;;;;6.50;6.00;;;;;-146.67;32.76;73978.88;5092706;27;62044;-79
2022/06/21 01:37:19;;;;;;;;;8.00;5.75;;;;;-146.67;32.35;73968.88;5065456;28;64959;-78
2022/06/21 01:39:51;;;;;;;;;6.00;5.25;;;;;-146.67;31.99;73968.88;5101837;27;61715;-79
2022/06/21 01:42:19;;;;;;;;;5.25;3.75;;;;;-146.67;32.35;73966.91;5097307;27;61760;-79
2022/06/21 01:44:50;;;;;;;;;5.75;4.00;;;;;-146.67;32.44;73974.88;5084879;27;61802;-79
2022/06/21 01:47:22;;;;;;;;;6.00;5.00;;;;;-146.67;32.45;73978.88;5082679;27;65008;-79
2022/06/21 01:49:57;;;;;;;;;6.00;5.00;;;;;-146.67;32.53;74006.81;5096945;27;61928;-79
2022/06/21 01:52:28;;;;;;;;;3.00;3.00;;;;;-146.67;32.41;73992.84;5086447;28;62209;-79
2022/06/21 01:55:01;;;;;;;;;5.25;3.25;;;;;-146.67;32.33;74002.81;5093512;27;61874;-78
2022/06/21 01:57:28;;;;;;;;;5.00;3.75;;;;;-146.67;32.43;74008.81;5086785;28;61821;-78
2022/06/21 01:59:54;;;;;;;;;4.50;4.50;;;;;-146.67;32.54;74014.81;5089932;27;61815;-79
2022/06/21 02:02:29;;;;;;;;;4.00;3.50;;;;;-146.67;32.24;74026.78;5090207;27;62820;-78
2022/06/21 02:05:16;;;;;;;;;3.50;3.50;;;;;-146.67;32.49;74040.75;5091878;28;62173;-78
2022/06/21 02:07:51;;;;;;;;;3.00;3.00;;;;;-146.67;32.33;74032.75;5087317;27;61940;-78
2022/06/21 02:10:32;;;;;;;;;7.50;5.00;;;;;-146.67;32.38;74024.78;5089193;27;62097;-78
2022/06/21 02:13:07;;;;;;;;;4.50;4.50;;;;;-146.67;32.64;74018.78;5069959;28;61686;-79
2022/06/21 02:15:40;;;;;;;;;4.25;4.25;;;;;-146.67;32.72;74022.78;5058739;27;62124;-79
2022/06/21 02:18:10;;;;;;;;;7.00;4.75;;;;;-146.67;32.57;74018.78;5101171;27;63777;-78
2022/06/21 02:20:54;;;;;;;;;7.00;5.00;;;;;-146.67;32.19;74018.78;5113982;27;61235;-78
2022/06/21 02:23:23;;;;;;;;;4.00;4.00;;;;;-146.67;32.38;74004.81;5109824;27;61897;-78
2022/06/21 02:25:51;;;;;;;;;3.50;3.50;;;;;-146.67;32.33;73990.84;5110297;27;61723;-78
2022/06/21 02:28:19;;;;;;;;;6.00;5.00;;;;;-146.67;32.54;73978.88;5104591;27;61754;-79
2022/06/21 02:30:46;;;;;;;;;6.00;6.00;;;;;-146.67;32.52;73972.88;5113171;27;61890;-79
2022/06/21 02:33:20;;;;;;;;;7.00;5.00;;;;;-146.67;32.43;73958.91;5094713;27;62875;-79
2022/06/21 02:35:51;;;;;;;;;4.25;3.25;;;;;-146.67;32.31;73944.94;5102785;27;62042;-79
2022/06/21 02:38:22;;;;;;;;;6.00;6.00;;;;;-146.67;32.21;73938.94;5085634;27;64937;-79
2022/06/21 02:40:55;;;;;;;;;4.75;4.75;;;;;-146.67;32.21;73926.97;5088466;27;61339;-79
2022/06/21 02:43:26;;;;;;;;;5.00;5.00;;;;;-146.67;32.18;73926.97;5095596;27;62032;-79
2022/06/21 02:45:59;;;;;;;;;3.00;3.00;;;;;-146.67;32.33;73924.97;5090547;27;61821;-79
2022/06/21 02:48:30;;;;;;;;;6.00;6.00;;;;;-146.67;32.27;73934.94;5072784;27;63818;-79
2022/06/21 02:51:01;;;;;;;;;5.00;4.00;;;;;-146.67;32.38;73930.97;5106814;27;61915;-79
2022/06/21 02:53:34;;;;;;;;;6.50;5.75;;;;;-146.67;32.38;73932.97;5096753;27;62084;-79
2022/06/21 02:56:08;;;;;;;;;6.00;6.00;;;;;-146.67;32.61;73932.97;5100662;27;62286;-79
2022/06/21 02:58:45;;;;;;;;;4.00;4.00;;;;;-146.67;32.63;73930.97;5107221;27;62258;-79
2022/06/21 03:01:22;;;;;;;;;6.25;5.25;;;;;-146.67;32.20;73938.94;5076366;28;62320;-78
2022/06/21 03:03:49;;;;;;;;;7.50;5.00;;;;;-146.67;32.67;73938.94;5066789;27;62026;-79
2022/06/21 03:06:18;;;;;;;;;6.00;5.00;;;;;-146.67;32.60;73942.94;5105024;27;61915;-79
2022/06/21 03:08:58;;;;;;;;;5.50;4.50;;;;;-146.67;32.38;73932.97;5100577;27;61932;-79
2022/06/21 03:11:28;;;;;;;;;4.00;4.00;;;;;-146.67;32.52;73936.94;5097299;27;61948;-79
2022/06/21 03:13:56;;;;;;;;;4.25;4.25;;;;;-146.67;32.44;73936.94;5069236;28;62043;-79
2022/06/21 03:16:22;;;;;;;;;5.00;4.50;;;;;-146.67;32.27;73940.94;5086846;28;61790;-79
2022/06/21 03:18:54;;;;;;;;;7.75;5.00;;;;;-146.67;32.62;73934.94;5081054;27;64659;-78
2022/06/21 03:21:34;;;;;;;;;5.25;4.75;;;;;-146.67;32.41;73924.97;5081820;27;62367;-79
2022/06/21 03:24:05;;;;;;;;;4.75;4.75;;;;;-146.67;32.53;73911.00;5064657;28;62121;-78
2022/06/21 03:26:34;;;;;;;;;8.00;6.25;;;;;-146.67;32.58;73907.00;5047449;28;61976;-79
2022/06/21 03:28:59;;;;;;;;;7.00;3.75;;;;;-146.67;32.41;73907.00;5080941;27;62125;-79
2022/06/21 03:31:27;;;;;;;;;7.00;5.25;;;;;-146.67;32.39;73903.00;5099045;27;61893;-79
2022/06/21 03:34:00;;;;;;;;;4.00;4.00;;;;;-146.67;32.73;73907.00;5059197;27;62058;-79
2022/06/21 03:36:26;;;;;;;;;6.00;5.00;;;;;-146.67;32.64;73907.00;5092331;27;62226;-79
2022/06/21 03:39:05;;;;;;;;;4.75;4.00;;;;;-146.67;32.55;73907.00;5087997;27;64680;-79
2022/06/21 03:41:43;;;;;;;;;7.50;5.25;;;;;-146.67;32.85;73903.00;5065936;28;62009;-79
2022/06/21 03:44:17;;;;;;;;;7.00;5.00;;;;;-146.67;32.81;73901.03;5085068;28;62351;-79
2022/06/21 03:46:53;;;;;;;;;6.50;5.00;;;;;-146.67;32.69;73899.03;5085675;27;61704;-79
2022/06/21 03:49:34;;;;;;;;;6.75;5.00;;;;;-146.67;32.73;73887.03;5083236;28;62057;-79
2022/06/21 03:52:06;;;;;;;;;6.25;5.25;;;;;-146.67;32.64;73885.06;5063502;28;61725;-79
2022/06/21 03:54:39;;;;;;;;;5.50;5.00;;;;;-146.67;32.77;73885.06;5064209;27;61977;-79
2022/06/21 03:57:18;;;;;;;;;6.50;6.50;;;;;-146.67;32.78;73877.06;5086331;27;62296;-79
2022/06/21 04:00:03;;;;;;;;;6.00;5.25;;;;;-146.67;33.00;73879.06;5083407;27;62006;-79
2022/06/21 04:02:51;;;;;;;;;8.75;6.00;;;;;-146.67;32.68;73883.06;5069851;28;62027;-79
2022/06/21 04:05:26;;;;;;;;;7.00;4.00;;;;;-146.67;33.06;73895.03;5084318;28;61884;-79
2022/06/21 04:07:59;;;;;;;;;6.25;4.00;;;;;-146.67;33.08;73887.03;5102095;27;61879;-79
2022/06/21 04:10:28;;;;;;;;;10.50;6.75;;;;;-146.67;33.31;73895.03;5100841;27;62695;-79
2022/06/21 04:12:57;;;;;;;;;7.75;5.50;;;;;-146.67;33.76;73891.03;5088193;27;61940;-79
2022/06/21 04:15:22;;;;;;;;;7.25;6.50;;;;;-146.67;34.15;73907.00;5106857;27;61845;-78
2022/06/21 04:17:57;;;;;;;;;4.50;4.50;;;;;-146.67;34.17;73901.03;5076397;28;62094;-79
2022/06/21 04:20:33;;;;;;;;;7.50;7.50;;;;;-146.67;34.63;73905.00;5075252;27;63523;-79
2022/06/21 04:23:29;;;;;;;;;6.50;5.00;;;;;-146.67;34.76;73909.00;5085011;27;62199;-79
2022/06/21 04:26:07;;;;;;;;;5.00;5.00;;;;;-146.67;34.89;73901.03;5064744;28;61788;-79
2022/06/21 04:28:39;;;;;;;;;7.75;5.00;;;;;-146.67;34.94;73911.00;5074248;27;62262;-79
2022/06/21 04:31:16;;;;;;;;;7.25;7.25;;;;;-146.67;34.98;73909.00;5090479;27;62901;-79
2022/06/21 04:33:52;;;;;;;;;9.50;7.25;;;;;-146.67;35.18;73913.00;5083927;27;62419;-79
2022/06/21 04:36:24;;;;;;;;;6.00;6.00;;;;;-146.67;35.11;73917.00;5065147;28;61972;-79
2022/06/21 04:39:08;;;;;;;;;6.50;6.50;;;;;-146.67;35.11;73911.00;5082087;27;61816;-78
2022/06/21 04:41:48;;;;;;;;;7.00;6.00;;;;;-146.67;35.50;73922.97;5046167;27;63948;-79
2022/06/21 04:44:30;;;;;;;;;6.00;5.00;;;;;-146.67;35.28;73911.00;5079221;28;61755;-79
2022/06/21 04:47:05;;;;;;;;;10.50;7.75;;;;;-146.67;35.58;73907.00;5067448;28;62045;-79
2022/06/21 04:49:41;;;;;;;;;9.50;7.75;;;;;-146.67;35.22;73915.00;5064614;28;61898;-79
2022/06/21 04:52:30;;;;;;;;;7.50;5.75;;;;;-146.67;35.10;73922.97;5097472;27;61948;-79
2022/06/21 04:54:56;;;;;;;;;6.50;6.50;;;;;-146.67;35.55;73920.97;5084270;27;61987;-79
2022/06/21 04:57:32;;;;;;;;;8.00;6.75;;;;;-146.67;35.32;73920.97;5084491;27;61984;-79
2022/06/21 05:00:19;;;;;;;;;9.00;5.00;;;;;-146.67;35.29;73918.97;5064934;27;61772;-79
2022/06/21 05:03:36;;;;;;;;;8.00;7.00;;;;;-146.67;35.12;73924.97;5064793;28;63319;-78
2022/06/21 05:06:02;;;;;;;;;6.50;5.00;;;;;-146.67;35.58;73930.97;5079894;27;61733;-79
2022/06/21 05:08:28;;;;;;;;;6.00;6.00;;;;;-146.67;35.93;73936.94;5099611;27;62186;-79
2022/06/21 05:10:58;;;;;;;;;8.50;8.25;;;;;-146.67;35.56;73946.94;5098329;27;61731;-80
2022/06/21 05:13:29;;;;;;;;;10.75;7.00;;;;;-146.67;35.94;73970.88;5084337;27;64081;-86
2022/06/21 05:15:57;;;;;;;;;12.00;7.00;;;;;-146.67;35.63;73976.88;5092431;27;61905;-85
2022/06/21 05:18:26;;;;;;;;;6.25;6.25;;;;;-146.67;35.89;73978.88;5076615;27;61897;-83
2022/06/21 05:21:00;;;;;;;;;9.25;6.50;;;;;-146.67;35.60;73988.84;5064319;28;62168;-82
2022/06/21 05:23:26;;;;;;;;;8.25;5.75;;;;;-146.67;35.23;73994.84;5068347;28;62632;-81
2022/06/21 05:25:52;;;;;;;;;7.50;6.00;;;;;-146.67;35.60;73984.84;5045593;28;61933;-80
2022/06/21 05:28:33;;;;;;;;;8.25;7.00;;;;;-146.67;35.62;73974.88;5069160;27;61847;-81
2022/06/21 05:31:17;;;;;;;;;11.00;7.75;;;;;-146.67;35.19;73970.88;5062742;28;62183;-82
2022/06/21 05:33:52;;;;;;;;;8.00;6.25;;;;;-146.67;35.43;73954.91;5071550;27;65025;-81
2022/06/21 05:36:22;;;;;;;;;8.00;8.00;;;;;-146.67;35.24;73944.94;5085592;28;61973;-80
2022/06/21 05:38:59;;;;;;;;;10.75;7.75;;;;;-146.67;35.15;73946.94;5067393;27;62222;-83
2022/06/21 05:41:31;;;;;;;;;12.25;8.25;;;;;-146.67;35.06;73920.97;5095590;27;62181;-84
2022/06/21 05:44:38;;;;;;;;;7.00;7.00;;;;;-146.67;34.67;73883.06;5080907;27;62867;-83
2022/06/21 05:47:14;;;;;;;;;10.25;9.00;;;;;-146.67;34.68;73863.09;4997080;28;61837;-84
2022/06/21 05:49:41;;;;;;;;;10.75;5.50;;;;;-146.67;34.36;73851.13;5016165;28;62476;-82
2022/06/21 05:52:14;;;;;;;;;7.25;6.25;;;;;-146.67;34.18;73843.13;5019811;28;61832;-82
2022/06/21 05:54:46;;;;;;;;;9.75;8.25;;;;;-146.67;34.05;73857.09;5015475;28;61961;-83
2022/06/21 05:57:18;;;;;;;;;7.00;6.00;;;;;-146.67;34.57;73851.13;5020650;28;61846;-80
2022/06/21 05:59:44;;;;;;;;;9.25;6.75;;;;;-146.67;34.78;73837.16;5011380;28;61998;-79
2022/06/21 06:02:18;;;;;;;;;7.00;6.25;;;;;-146.67;34.82;73841.13;5017341;28;62278;-84
2022/06/21 06:04:56;;;;;;;;;7.00;7.00;;;;;-146.67;34.68;73829.16;5013871;28;63729;-84
2022/06/21 06:07:29;;;;;;;;;8.50;7.25;;;;;-146.67;34.83;73835.16;5013706;28;62129;-83
2022/06/21 06:09:58;;;;;;;;;7.25;7.25;;;;;-146.67;34.38;73835.16;5007552;28;62128;-84
2022/06/21 06:12:30;;;;;;;;;7.50;7.00;;;;;-146.67;34.06;73855.09;5011524;28;62346;-86
2022/06/21 06:15:06;;;;;;;;;7.75;6.25;;;;;-146.67;34.32;73861.09;5005854;28;64979;-86
2022/06/21 06:17:47;;;;;;;;;8.00;5.50;;;;;-146.67;34.18;73835.16;5012254;28;61919;-84
2022/06/21 06:20:39;;;;;;;;;7.50;7.25;;;;;-146.67;34.25;73821.19;5009474;28;62046;-86
2022/06/21 06:23:31;;;;;;;;;7.25;7.25;;;;;-146.67;34.55;73803.22;5005212;28;62090;-83
2022/06/21 06:26:23;;;;;;;;;9.00;8.00;;;;;-146.67;34.27;73781.25;5093160;27;64953;-81
2022/06/21 06:29:14;;;;;;;;;6.75;5.50;;;;;-146.67;33.64;73701.41;5077885;28;61798;-80
2022/06/21 06:32:01;;;;;;;;;8.50;7.75;;;;;-146.67;32.92;73637.53;5076859;27;63092;-80
2022/06/21 06:34:35;;;;;;;;;6.00;6.00;;;;;-146.67;32.69;73603.59;5083501;27;62086;-81
2022/06/21 06:37:06;;;;;;;;;8.50;8.50;;;;;-146.67;32.33;73587.63;5066471;27;64283;-79
2022/06/21 06:39:36;;;;;;;;;9.00;7.00;;;;;-146.67;32.64;73579.66;5086014;27;62254;-80
2022/06/21 06:42:07;;;;;;;;;8.00;7.25;;;;;-146.67;32.46;73579.66;5074704;27;62317;-79
2022/06/21 06:44:38;;;;;;;;;8.00;7.00;;;;;-146.67;32.39;73581.66;5065427;27;61859;-83
2022/06/21 06:47:15;;;;;;;;;7.25;6.75;;;;;-146.67;32.17;73585.63;5085503;27;65051;-81
2022/06/21 06:49:50;;;;;;;;;15.25;10.75;;;;;-146.67;32.16;73601.59;5085247;27;62013;-79
2022/06/21 06:52:19;;;;;;;;;9.25;9.00;;;;;-146.67;32.05;73609.59;5086158;27;62016;-80
2022/06/21 06:54:49;;;;;;;;;10.25;7.50;;;;;-146.67;32.06;73597.63;5086089;27;62252;-78
2022/06/21 06:57:32;;;;;;;;;5.50;5.25;;;;;-146.67;31.92;73593.63;5083999;27;63642;-77
2022/06/21 07:00:03;;;;;;;;;11.75;8.00;;;;;-146.67;31.93;73595.63;5083929;27;62769;-80
2022/06/21 07:02:37;;;;;;;;;11.75;9.00;;;;;-146.67;32.04;73591.63;5066875;27;61897;-78
2022/06/21 07:05:42;;;;;;;;;8.75;8.75;;;;;-146.67;32.10;73577.66;5074606;27;62257;-78
2022/06/21 07:08:20;;;;;;;;;10.75;7.25;;;;;-146.67;32.10;73563.69;5080101;27;61928;-78
2022/06/21 07:10:48;;;;;;;;;9.00;6.75;;;;;-146.67;32.24;73555.69;5077539;27;61928;-74
2022/06/21 07:13:15;;;;;;;;;10.25;8.75;;;;;-146.67;31.87;73589.63;5081912;27;61997;-74
2022/06/21 07:15:44;;;;;;;;;12.00;9.00;;;;;-146.67;32.41;73597.63;5085490;27;62002;-74
2022/06/21 07:18:18;;;;;;;;;13.00;8.75;;;;;-146.67;32.16;73605.59;5068517;27;63710;-74
2022/06/21 07:20:45;;;;;;;;;11.25;9.00;;;;;-146.67;32.19;73607.59;5063600;27;61781;-77
2022/06/21 07:23:17;;;;;;;;;7.25;7.25;;;;;-146.67;32.46;73597.63;5081959;27;61833;-75
2022/06/21 07:26:21;;;;;;;;;10.50;10.00;;;;;-146.67;32.03;73595.63;5084273;27;62065;-75
2022/06/21 07:28:49;;;;;;;;;9.00;8.00;;;;;-146.67;32.24;73607.59;5084617;27;62692;-75
2022/06/21 07:31:15;;;;;;;;;10.25;8.25;;;;;-146.67;32.41;73615.59;5083721;27;62116;-75
2022/06/21 07:34:05;;;;;;;;;10.25;9.00;;;;;-146.67;32.21;73617.56;5067055;27;61910;-74
2022/06/21 07:36:47;;;;;;;;;10.75;9.50;;;;;-146.67;32.75;73601.59;5076049;27;61834;-74
2022/06/21 07:39:22;;;;;;;;;9.50;9.50;;;;;-146.67;32.47;73593.63;5081994;28;62595;-74
2022/06/21 07:41:57;;;;;;;;;9.75;9.00;;;;;-146.67;32.02;73577.66;5079519;28;61952;-74
2022/06/21 07:44:33;;;;;;;;;12.75;10.50;;;;;-146.67;32.23;73555.69;5077740;27;61932;-74
2022/06/21 07:47:05;;;;;;;;;14.75;9.00;;;;;-146.67;31.99;73563.69;5074426;28;62139;-74
2022/06/21 07:50:00;;;;;;;;;12.75;10.50;;;;;-146.67;32.13;73563.69;5081142;27;61873;-75
2022/06/21 07:52:33;;;;;;;;;9.25;7.50;;;;;-146.67;31.99;73565.69;5077331;28;61906;-74
2022/06/21 07:55:04;;;;;;;;;14.00;11.75;;;;;-146.67;32.05;73561.69;5079202;28;62006;-75
2022/06/21 07:57:39;;;;;;;;;9.00;9.00;;;;;-146.67;31.93;73541.72;5080025;28;62169;-74
2022/06/21 08:00:19;;;;;;;;;9.25;7.50;;;;;-146.67;32.18;73497.81;5062941;28;65400;-74
2022/06/21 08:08:42;;;;;;;;;8.75;7.00;;;;;-146.67;31.29;73392.03;5075762;28;62159;-75
2022/06/21 08:11:17;;;;;;;;;10.25;10.25;;;;;-146.67;31.20;73392.03;5062398;28;63309;-74
2022/06/21 08:13:43;;;;;;;;;11.50;11.00;;;;;-146.67;31.17;73408.00;5079516;28;61895;-74
2022/06/21 08:16:22;;;;;;;;;10.50;9.00;;;;;-146.67;31.24;73417.97;5081108;27;61881;-74
2022/06/21 08:18:53;;;;;;;;;8.50;8.00;;;;;-146.67;31.23;73425.97;5085980;27;62097;-75
2022/06/21 08:21:33;;;;;;;;;11.50;8.25;;;;;-146.67;31.14;73404.00;5074985;27;62888;-75
2022/06/21 08:24:10;;;;;;;;;8.75;8.75;;;;;-146.67;31.04;73378.06;5062870;28;62383;-77
2022/06/21 08:26:46;;;;;;;;;11.50;11.50;;;;;-146.67;31.08;73366.09;5080781;28;62136;-77
2022/06/21 08:29:33;;;;;;;;;10.25;8.25;;;;;-146.67;31.01;73360.09;5058924;28;62102;-77
2022/06/21 08:32:11;;;;;;;;;8.50;8.50;;;;;-146.67;31.25;73346.13;5080082;28;62847;-77
2022/06/21 08:34:48;;;;;;;;;14.75;10.25;;;;;-146.67;30.71;73316.19;5076772;27;61939;-78
2022/06/21 08:37:25;;;;;;;;;10.25;9.00;;;;;-146.67;30.73;73314.19;5080636;28;61884;-78
2022/06/21 08:40:07;;;;;;;;;7.75;7.75;;;;;-146.67;30.80;73284.25;5078793;28;61918;-75
2022/06/21 08:42:51;;;;;;;;;12.50;11.25;;;;;-146.67;30.24;73250.31;5079077;27;62020;-75
2022/06/21 08:45:43;;;;;;;;;15.25;11.00;;;;;-146.67;30.12;73234.38;5064001;28;61975;-75
2022/06/21 08:48:42;;;;;;;;;14.50;13.50;;;;;-146.67;29.97;73204.44;5081850;28;61858;-77
2022/06/21 08:51:41;;;;;;;;;14.50;13.00;;;;;-146.67;29.82;73202.44;5078123;28;61839;-77
2022/06/21 08:54:41;;;;;;;;;12.50;9.75;;;;;-146.67;29.92;73198.44;5061936;28;64281;-78
2022/06/21 08:57:25;;;;;;;;;10.75;10.75;;;;;-146.67;30.26;73216.41;5081054;28;62017;-77
2022/06/21 09:00:12;;;;;;;;;11.75;10.75;;;;;-146.67;30.49;73218.41;5060930;28;61772;-77
2022/06/21 09:03:00;;;;;;;;;11.00;9.00;;;;;-146.67;30.41;73218.41;5077992;27;62122;-79
2022/06/21 09:05:48;;;;;;;;;11.75;10.50;;;;;-146.67;30.36;73220.38;5056350;28;63978;-78
2022/06/21 09:08:19;;;;;;;;;9.00;8.25;;;;;-146.67;30.45;73230.38;5058387;28;61909;-77
2022/06/21 09:11:22;;;;;;;;;15.50;11.00;;;;;-146.67;30.49;73230.38;5094478;27;62848;-76
2022/06/21 09:14:12;;;;;;;;;11.00;8.25;;;;;-146.67;30.75;73236.34;5061991;28;61918;-76
2022/06/21 09:16:57;;;;;;;;;13.50;11.00;;;;;-146.67;30.53;73220.38;5067781;27;62094;-77
2022/06/21 09:19:31;;;;;;;;;14.75;12.50;;;;;-146.67;30.26;73212.41;5088539;27;61980;-79
2022/06/21 09:22:19;;;;;;;;;10.00;10.00;;;;;-146.67;30.55;73202.44;5073769;27;61890;-78
2022/06/21 09:25:06;;;;;;;;;11.50;9.50;;;;;-146.67;30.51;73190.44;5083798;27;62174;-77
2022/06/21 09:27:39;;;;;;;;;12.00;10.75;;;;;-146.67;30.04;73160.50;5075528;28;62900;-76
2022/06/21 09:30:29;;;;;;;;;7.50;7.50;;;;;-146.67;30.27;73134.56;5063896;28;61854;-76
2022/06/21 09:33:17;;;;;;;;;8.75;8.00;;;;;-146.67;29.78;73140.56;5069012;27;62004;-77
2022/06/21 09:36:10;;;;;;;;;12.00;10.75;;;;;-146.67;29.92;73160.50;5085169;27;62138;-78
2022/06/21 09:38:59;;;;;;;;;14.75;10.25;;;;;-146.67;30.15;73146.53;5076679;27;64139;-76
2022/06/21 09:41:50;;;;;;;;;10.50;10.50;;;;;-146.67;30.27;73132.56;5081055;27;62250;-78
2022/06/21 09:44:31;;;;;;;;;12.75;11.50;;;;;-146.67;30.05;73084.69;5075304;27;62255;-76
2022/06/21 09:47:22;;;;;;;;;9.25;9.00;;;;;-146.67;29.92;73054.75;5072415;28;61967;-75
2022/06/21 09:50:08;;;;;;;;;14.50;11.75;;;;;-146.67;30.38;73028.78;5071974;28;62065;-75
2022/06/21 09:53:02;;;;;;;;;11.50;9.25;;;;;-146.67;30.15;73020.81;5075792;28;61769;-80
2022/06/21 09:55:58;;;;;;;;;15.75;8.75;;;;;-146.67;29.41;73014.81;5062883;28;62062;-76
2022/06/21 09:58:46;;;;;;;;;15.00;10.50;;;;;-146.67;30.14;73004.84;5055089;28;62039;-75
2022/06/21 10:01:34;;;;;;;;;14.25;11.00;;;;;-146.67;29.59;73012.84;5076385;27;61963;-76
2022/06/21 10:04:16;;;;;;;;;12.00;12.00;;;;;-146.67;29.63;73008.84;5059746;28;61871;-75
2022/06/21 10:06:56;;;;;;;;;13.50;11.75;;;;;-146.67;29.79;73024.81;5067270;27;62484;-77
2022/06/21 10:09:29;;;;;;;;;15.25;14.50;;;;;-146.67;29.40;72986.88;5062151;27;62031;-76
2022/06/21 10:11:58;;;;;;;;;11.75;11.25;;;;;-146.67;29.68;72980.91;5075725;27;63569;-76
2022/06/21 10:14:50;;;;;;;;;12.00;10.25;;;;;-146.67;29.68;72994.88;5059363;27;62002;-75
2022/06/21 10:17:30;;;;;;;;;12.50;11.25;;;;;-146.67;29.66;73020.81;5064736;27;62030;-76
2022/06/21 10:20:18;;;;;;;;;11.25;11.25;;;;;-146.67;30.03;73008.84;5080291;27;61759;-78
2022/06/21 10:23:08;;;;;;;;;15.75;13.25;;;;;-146.67;29.55;72998.84;5058040;28;63880;-75
2022/06/21 10:25:55;;;;;;;;;14.25;12.00;;;;;-146.67;29.60;73014.81;5080953;28;61941;-75
2022/06/21 10:28:24;;;;;;;;;12.75;12.75;;;;;-146.67;29.64;73018.81;5079013;28;61754;-75
2022/06/21 10:31:05;;;;;;;;;11.50;11.50;;;;;-146.67;29.74;73036.78;5062154;28;62216;-76
2022/06/21 10:34:01;;;;;;;;;15.25;11.50;;;;;-146.67;29.93;73070.72;5082493;27;62910;-75
2022/06/21 10:36:26;;;;;;;;;15.75;12.75;;;;;-146.67;30.32;73086.69;5081616;27;62154;-85
2022/06/21 10:39:11;;;;;;;;;18.25;12.75;;;;;-146.67;30.06;73094.66;5048046;28;62503;-80
2022/06/21 10:45:27;;;;;;;;;20.50;16.75;;;;;-146.67;30.55;73082.69;5102737;27;62369;-75
2022/06/21 10:47:55;;;;;;;;;14.00;13.00;;;;;-146.67;29.94;73092.66;5099350;27;61921;-85
2022/06/21 10:50:30;;;;;;;;;17.00;13.50;;;;;-146.67;30.30;73102.63;5059434;27;62157;-76
2022/06/21 10:53:16;;;;;;;;;15.75;12.00;;;;;-146.67;30.50;73118.59;5072039;28;61727;-76
2022/06/21 10:59:29;;;;;;;;;10.50;10.50;;;;;-146.67;30.85;73120.59;5097189;27;61953;-74
2022/06/21 11:02:16;;;;;;;;;15.25;11.50;;;;;-146.67;31.03;73082.69;5065526;28;62020;-75
2022/06/21 11:05:08;;;;;;;;;14.00;10.75;;;;;-146.67;30.36;73074.69;5079866;27;62433;-75
2022/06/21 11:08:03;;;;;;;;;19.00;12.00;;;;;-146.67;30.19;73074.69;5092490;27;63220;-80
2022/06/21 11:10:34;;;;;;;;;12.25;10.00;;;;;-146.67;30.70;73066.72;5068530;28;61867;-75
2022/06/21 11:13:04;;;;;;;;;13.00;9.50;;;;;-146.67;30.59;73042.75;5084245;27;61872;-74
2022/06/21 11:15:44;;;;;;;;;6.50;6.50;;;;;-146.67;30.91;73014.81;5079899;28;63056;-76
2022/06/21 11:18:19;;;;;;;;;11.25;10.00;;;;;-146.67;30.37;72976.91;5073957;27;61834;-75
2022/06/21 11:21:00;;;;;;;;;12.00;10.25;;;;;-146.67;29.95;72952.97;5075296;27;61765;-75
2022/06/21 11:23:42;;;;;;;;;9.50;9.00;;;;;-146.67;29.89;72937.00;5071359;27;61901;-75
2022/06/21 11:26:21;;;;;;;;;12.00;10.67;;;;;-146.67;29.83;72929.00;5080761;27;61875;-75
2022/06/21 11:28:46;;;;;;;;;12.25;9.00;;;;;-146.67;30.26;72911.06;5054932;27;63839;-75
2022/06/21 11:31:35;;;;;;;;;15.00;13.00;;;;;-146.67;29.62;72871.13;5077014;27;62092;-75
2022/06/21 11:34:19;;;;;;;;;11.25;9.75;;;;;-146.67;29.87;72851.19;5080834;27;61957;-75
2022/06/21 11:37:12;;;;;;;;;8.00;7.00;;;;;-146.67;29.79;72845.19;5077033;27;62099;-75
2022/06/21 11:39:49;;;;;;;;;9.00;9.00;;;;;-146.67;29.18;72829.22;5061595;27;62854;-75
2022/06/21 11:42:50;;;;;;;;;7.00;7.00;;;;;-146.67;29.39;72801.28;5079720;27;61829;-75
2022/06/21 11:45:43;;;;;;;;;8.33;8.33;;;;;-146.67;28.96;72735.44;5082539;27;61958;-75
2022/06/21 11:48:43;;;;;;;;;9.00;8.67;;;;;-146.67;28.35;72619.69;5095798;27;61992;-77
2022/06/21 11:51:11;;;;;;;;;8.00;8.00;;;;;-146.67;27.70;72539.88;5084417;27;63689;-81
2022/06/21 11:53:55;;;;;;;;;8.00;8.00;;;;;-146.67;27.64;72452.06;5084766;27;61983;-76
2022/06/21 11:56:49;;;;;;;;;10.00;5.33;;;;;-146.67;26.96;72338.34;5074032;27;61986;-77
2022/06/21 11:59:30;;;;;;;;;8.00;8.00;;;;;-146.67;26.79;72212.63;5080675;28;61713;-80
2022/06/21 12:02:11;;;;;;;;;10.67;8.67;;;;;-146.67;25.57;72076.94;5065691;27;62240;-76
2022/06/21 12:04:57;;;;;;;;;9.33;8.33;;;;;-146.67;25.38;71921.31;5102537;27;61860;-77
2022/06/21 12:07:42;;;;;;;;;8.67;8.00;;;;;-146.67;24.44;71793.63;5103447;27;61876;-77
2022/06/21 12:10:20;;;;;;;;;9.67;8.67;;;;;-146.67;24.09;71661.97;5082044;27;61933;-76